Portada
METAR-TAF:

METAR-TAF

Aeropuertos :

La Palma, España

Aeropuerto de La Palma

latitud: 28-37N, longitud: 017-45W, altitud: 29 m

Observación

El informe se hizo hace 42 minutos, a las 04:30 UTC
Viento 10 kt del norte
Temperatura 22°C
Humedad 88%
Presión 1018 hPa
Visibilidad 10 km o más

METAR: GCLA 240430Z AUTO 35010KT 9999 FEW014/// 22/20 Q1018

Hora: 06:12 (05:12 UTC)

Pronóstico

El informe se hizo hace 3 horas y 12 minutos, a las 02:00 UTC
Pronóstico válido del 24 a las 03 UTC al 25 a las 03 UTC
Viento 12 kt del norte-noreste
Visibilidad 10 km o más
Cielo nuboso a una altura de 2500 ft
Probabilidad 30% :
Temporalmente
del 24 a las 03 UTC al 24 a las 08 UTC
Viento 8 kt del norte-noroeste

TAF: GCLA 240200Z 2403/2503 03012KT 9999 BKN025 TX29/2415Z TN25/2405Z PROB30 TEMPO 2403/2408 33008KT

Observaciones y pronósticos meteorológicos de más de 4000 aeropuertos (mensajes METAR y TAF).

Los puntos amarillos y rojos representan las estaciones disponibles.

Ponga el ratón en el punto deseado para ver el nombre de la estación.

Haga clic para ver las observaciones y los pronósticos meteorológicos.

Para cambiar el mapa : haga clic en los botones verdes con una cruz de color negro para hacer un zoom, en el botón verde con un guión para alejar o en las flechas verdes para mapas adyacentes.


METAR-TAF: